sensor_id;sensor_type;location;lat;lon;timestamp;P1;durP1;ratioP1;P2;durP2;ratioP2
5458;SDS011;2752;49.992;8.422;2023-05-20T00:02:13;1.10;;;1.00;;
5458;SDS011;2752;49.992;8.422;2023-05-20T00:04:40;1.93;;;1.10;;
5458;SDS011;2752;49.992;8.422;2023-05-20T00:07:07;2.00;;;1.53;;
5458;SDS011;2752;49.992;8.422;2023-05-20T00:09:34;1.67;;;1.30;;
5458;SDS011;2752;49.992;8.422;2023-05-20T00:12:01;2.03;;;1.30;;
5458;SDS011;2752;49.992;8.422;2023-05-20T00:14:27;2.77;;;1.60;;
5458;SDS011;2752;49.992;8.422;2023-05-20T00:16:55;2.70;;;1.13;;
5458;SDS011;2752;49.992;8.422;2023-05-20T00:19:22;1.87;;;1.20;;
5458;SDS011;2752;49.992;8.422;2023-05-20T00:21:49;3.03;;;1.50;;
5458;SDS011;2752;49.992;8.422;2023-05-20T00:24:15;4.40;;;1.40;;
5458;SDS011;2752;49.992;8.422;2023-05-20T00:26:42;3.27;;;1.90;;
5458;SDS011;2752;49.992;8.422;2023-05-20T00:29:08;1.83;;;1.43;;
5458;SDS011;2752;49.992;8.422;2023-05-20T00:31:35;2.10;;;1.37;;
5458;SDS011;2752;49.992;8.422;2023-05-20T00:34:03;2.00;;;1.37;;
5458;SDS011;2752;49.992;8.422;2023-05-20T00:36:29;2.30;;;1.27;;
5458;SDS011;2752;49.992;8.422;2023-05-20T00:38:56;1.33;;;1.00;;
5458;SDS011;2752;49.992;8.422;2023-05-20T00:41:23;1.57;;;1.33;;
5458;SDS011;2752;49.992;8.422;2023-05-20T00:43:51;2.50;;;1.30;;
5458;SDS011;2752;49.992;8.422;2023-05-20T00:46:19;2.87;;;1.77;;
5458;SDS011;2752;49.992;8.422;2023-05-20T00:48:46;3.77;;;1.43;;
5458;SDS011;2752;49.992;8.422;2023-05-20T00:51:14;2.93;;;1.83;;
5458;SDS011;2752;49.992;8.422;2023-05-20T00:53:42;6.40;;;1.43;;
5458;SDS011;2752;49.992;8.422;2023-05-20T00:56:09;1.53;;;1.43;;
5458;SDS011;2752;49.992;8.422;2023-05-20T00:58:36;1.90;;;1.43;;
5458;SDS011;2752;49.992;8.422;2023-05-20T01:01:03;2.10;;;1.30;;
5458;SDS011;2752;49.992;8.422;2023-05-20T01:03:31;3.90;;;1.60;;
5458;SDS011;2752;49.992;8.422;2023-05-20T01:05:57;3.10;;;1.23;;
5458;SDS011;2752;49.992;8.422;2023-05-20T01:08:26;2.20;;;1.37;;
5458;SDS011;2752;49.992;8.422;2023-05-20T01:10:55;2.23;;;1.50;;
5458;SDS011;2752;49.992;8.422;2023-05-20T01:13:26;1.67;;;1.40;;
5458;SDS011;2752;49.992;8.422;2023-05-20T01:15:57;1.83;;;1.33;;
5458;SDS011;2752;49.992;8.422;2023-05-20T01:18:26;2.57;;;1.40;;
5458;SDS011;2752;49.992;8.422;2023-05-20T01:20:55;2.10;;;1.30;;
5458;SDS011;2752;49.992;8.422;2023-05-20T01:23:30;2.70;;;1.47;;
5458;SDS011;2752;49.992;8.422;2023-05-20T01:25:58;3.23;;;1.43;;
5458;SDS011;2752;49.992;8.422;2023-05-20T01:28:25;3.40;;;2.07;;
5458;SDS011;2752;49.992;8.422;2023-05-20T01:30:54;4.30;;;1.90;;
5458;SDS011;2752;49.992;8.422;2023-05-20T01:33:21;2.00;;;1.63;;
5458;SDS011;2752;49.992;8.422;2023-05-20T01:35:50;1.73;;;1.37;;
5458;SDS011;2752;49.992;8.422;2023-05-20T01:38:17;2.80;;;1.43;;
5458;SDS011;2752;49.992;8.422;2023-05-20T01:40:46;2.93;;;1.70;;
5458;SDS011;2752;49.992;8.422;2023-05-20T01:43:13;2.47;;;1.50;;
5458;SDS011;2752;49.992;8.422;2023-05-20T01:45:42;3.70;;;1.73;;
5458;SDS011;2752;49.992;8.422;2023-05-20T01:48:09;1.30;;;1.20;;
5458;SDS011;2752;49.992;8.422;2023-05-20T01:50:37;3.20;;;1.70;;
5458;SDS011;2752;49.992;8.422;2023-05-20T01:53:03;5.40;;;2.13;;
5458;SDS011;2752;49.992;8.422;2023-05-20T01:55:32;2.03;;;1.73;;
5458;SDS011;2752;49.992;8.422;2023-05-20T01:58:00;1.53;;;1.40;;
5458;SDS011;2752;49.992;8.422;2023-05-20T02:00:26;2.70;;;1.87;;
5458;SDS011;2752;49.992;8.422;2023-05-20T02:02:53;3.23;;;1.80;;
5458;SDS011;2752;49.992;8.422;2023-05-20T02:05:20;2.67;;;1.63;;
5458;SDS011;2752;49.992;8.422;2023-05-20T02:07:46;1.30;;;1.17;;
5458;SDS011;2752;49.992;8.422;2023-05-20T02:10:13;1.50;;;1.30;;
5458;SDS011;2752;49.992;8.422;2023-05-20T02:12:41;2.17;;;1.67;;
5458;SDS011;2752;49.992;8.422;2023-05-20T02:15:09;3.73;;;1.57;;
5458;SDS011;2752;49.992;8.422;2023-05-20T02:17:36;1.97;;;1.60;;
5458;SDS011;2752;49.992;8.422;2023-05-20T02:20:04;3.60;;;2.00;;
5458;SDS011;2752;49.992;8.422;2023-05-20T02:22:31;2.90;;;1.80;;
5458;SDS011;2752;49.992;8.422;2023-05-20T02:24:58;4.23;;;2.00;;
5458;SDS011;2752;49.992;8.422;2023-05-20T02:27:25;2.93;;;1.80;;
5458;SDS011;2752;49.992;8.422;2023-05-20T02:29:51;2.27;;;1.70;;
5458;SDS011;2752;49.992;8.422;2023-05-20T02:32:19;4.10;;;1.73;;
5458;SDS011;2752;49.992;8.422;2023-05-20T02:34:47;3.00;;;1.50;;
5458;SDS011;2752;49.992;8.422;2023-05-20T02:37:14;2.50;;;1.73;;
5458;SDS011;2752;49.992;8.422;2023-05-20T02:39:41;2.70;;;1.77;;
5458;SDS011;2752;49.992;8.422;2023-05-20T02:42:07;1.87;;;1.73;;
5458;SDS011;2752;49.992;8.422;2023-05-20T02:44:34;2.50;;;1.80;;
5458;SDS011;2752;49.992;8.422;2023-05-20T02:47:00;2.20;;;1.57;;
5458;SDS011;2752;49.992;8.422;2023-05-20T02:49:28;2.03;;;1.60;;
5458;SDS011;2752;49.992;8.422;2023-05-20T02:51:55;3.43;;;1.60;;
5458;SDS011;2752;49.992;8.422;2023-05-20T02:54:22;2.60;;;1.67;;
5458;SDS011;2752;49.992;8.422;2023-05-20T02:56:48;2.63;;;1.53;;
5458;SDS011;2752;49.992;8.422;2023-05-20T02:59:15;2.83;;;1.50;;
5458;SDS011;2752;49.992;8.422;2023-05-20T03:01:41;8.90;;;1.80;;
5458;SDS011;2752;49.992;8.422;2023-05-20T03:04:08;3.80;;;2.00;;
5458;SDS011;2752;49.992;8.422;2023-05-20T03:06:36;4.20;;;2.20;;
5458;SDS011;2752;49.992;8.422;2023-05-20T03:09:08;2.13;;;1.30;;
5458;SDS011;2752;49.992;8.422;2023-05-20T03:11:35;12.73;;;1.97;;
5458;SDS011;2752;49.992;8.422;2023-05-20T03:14:02;3.70;;;1.80;;
5458;SDS011;2752;49.992;8.422;2023-05-20T03:16:28;3.57;;;2.27;;
5458;SDS011;2752;49.992;8.422;2023-05-20T03:18:55;3.20;;;2.10;;
5458;SDS011;2752;49.992;8.422;2023-05-20T03:21:21;2.30;;;1.67;;
5458;SDS011;2752;49.992;8.422;2023-05-20T03:23:50;3.67;;;1.67;;
5458;SDS011;2752;49.992;8.422;2023-05-20T03:26:17;3.97;;;2.10;;
5458;SDS011;2752;49.992;8.422;2023-05-20T03:28:43;3.30;;;1.83;;
5458;SDS011;2752;49.992;8.422;2023-05-20T03:31:10;4.40;;;1.77;;
5458;SDS011;2752;49.992;8.422;2023-05-20T03:33:36;2.73;;;1.63;;
5458;SDS011;2752;49.992;8.422;2023-05-20T03:36:03;5.53;;;2.23;;
5458;SDS011;2752;49.992;8.422;2023-05-20T03:38:31;5.83;;;2.17;;
5458;SDS011;2752;49.992;8.422;2023-05-20T03:40:59;4.10;;;1.87;;
5458;SDS011;2752;49.992;8.422;2023-05-20T03:43:26;2.80;;;1.87;;
5458;SDS011;2752;49.992;8.422;2023-05-20T03:45:52;4.23;;;2.20;;
5458;SDS011;2752;49.992;8.422;2023-05-20T03:48:19;2.07;;;1.50;;
5458;SDS011;2752;49.992;8.422;2023-05-20T03:50:46;3.03;;;2.50;;
5458;SDS011;2752;49.992;8.422;2023-05-20T03:53:12;4.53;;;2.50;;
5458;SDS011;2752;49.992;8.422;2023-05-20T03:55:39;4.73;;;1.90;;
5458;SDS011;2752;49.992;8.422;2023-05-20T03:58:07;3.37;;;1.77;;
5458;SDS011;2752;49.992;8.422;2023-05-20T04:00:34;5.80;;;1.87;;
5458;SDS011;2752;49.992;8.422;2023-05-20T04:03:01;2.90;;;1.87;;
5458;SDS011;2752;49.992;8.422;2023-05-20T04:05:28;3.10;;;2.00;;
5458;SDS011;2752;49.992;8.422;2023-05-20T04:07:54;3.47;;;1.97;;
5458;SDS011;2752;49.992;8.422;2023-05-20T04:10:22;2.20;;;1.73;;
5458;SDS011;2752;49.992;8.422;2023-05-20T04:12:49;6.83;;;2.23;;
5458;SDS011;2752;49.992;8.422;2023-05-20T04:15:17;4.40;;;2.07;;
5458;SDS011;2752;49.992;8.422;2023-05-20T04:17:44;1.90;;;1.70;;
5458;SDS011;2752;49.992;8.422;2023-05-20T04:20:12;3.13;;;1.73;;
5458;SDS011;2752;49.992;8.422;2023-05-20T04:22:39;9.17;;;3.90;;
5458;SDS011;2752;49.992;8.422;2023-05-20T04:25:06;3.73;;;1.87;;
5458;SDS011;2752;49.992;8.422;2023-05-20T04:27:35;2.30;;;1.50;;
5458;SDS011;2752;49.992;8.422;2023-05-20T04:30:04;7.37;;;2.53;;
5458;SDS011;2752;49.992;8.422;2023-05-20T04:32:35;3.57;;;1.90;;
5458;SDS011;2752;49.992;8.422;2023-05-20T04:35:04;2.07;;;1.80;;
5458;SDS011;2752;49.992;8.422;2023-05-20T04:37:35;2.50;;;1.50;;
5458;SDS011;2752;49.992;8.422;2023-05-20T04:40:03;2.00;;;1.90;;
5458;SDS011;2752;49.992;8.422;2023-05-20T04:42:33;2.80;;;1.80;;
5458;SDS011;2752;49.992;8.422;2023-05-20T04:44:59;6.20;;;2.67;;
5458;SDS011;2752;49.992;8.422;2023-05-20T04:47:28;2.53;;;2.20;;
5458;SDS011;2752;49.992;8.422;2023-05-20T04:49:57;3.90;;;2.20;;
5458;SDS011;2752;49.992;8.422;2023-05-20T04:52:23;3.83;;;1.83;;
5458;SDS011;2752;49.992;8.422;2023-05-20T04:54:50;2.97;;;1.90;;
5458;SDS011;2752;49.992;8.422;2023-05-20T04:57:17;8.20;;;2.60;;
5458;SDS011;2752;49.992;8.422;2023-05-20T04:59:45;2.67;;;1.77;;
5458;SDS011;2752;49.992;8.422;2023-05-20T05:02:11;3.87;;;1.90;;
5458;SDS011;2752;49.992;8.422;2023-05-20T05:04:38;3.27;;;2.30;;
5458;SDS011;2752;49.992;8.422;2023-05-20T05:07:06;11.77;;;2.57;;
5458;SDS011;2752;49.992;8.422;2023-05-20T05:09:33;2.60;;;2.33;;
5458;SDS011;2752;49.992;8.422;2023-05-20T05:12:00;4.13;;;2.00;;
5458;SDS011;2752;49.992;8.422;2023-05-20T05:14:26;4.30;;;2.30;;
5458;SDS011;2752;49.992;8.422;2023-05-20T05:16:53;4.87;;;2.50;;
5458;SDS011;2752;49.992;8.422;2023-05-20T05:19:19;5.40;;;2.60;;
5458;SDS011;2752;49.992;8.422;2023-05-20T05:21:46;3.20;;;2.03;;
5458;SDS011;2752;49.992;8.422;2023-05-20T05:24:14;2.60;;;2.23;;
5458;SDS011;2752;49.992;8.422;2023-05-20T05:26:41;4.60;;;2.07;;
5458;SDS011;2752;49.992;8.422;2023-05-20T05:29:07;3.07;;;1.90;;
5458;SDS011;2752;49.992;8.422;2023-05-20T05:31:34;5.53;;;2.37;;
5458;SDS011;2752;49.992;8.422;2023-05-20T05:34:01;2.17;;;1.90;;
5458;SDS011;2752;49.992;8.422;2023-05-20T05:36:27;3.33;;;2.77;;
5458;SDS011;2752;49.992;8.422;2023-05-20T05:38:54;4.00;;;1.90;;
5458;SDS011;2752;49.992;8.422;2023-05-20T05:41:22;3.53;;;2.57;;
5458;SDS011;2752;49.992;8.422;2023-05-20T05:43:48;2.00;;;1.70;;
5458;SDS011;2752;49.992;8.422;2023-05-20T05:46:15;6.60;;;2.47;;
5458;SDS011;2752;49.992;8.422;2023-05-20T05:48:42;3.03;;;2.13;;
5458;SDS011;2752;49.992;8.422;2023-05-20T05:51:12;4.90;;;2.70;;
5458;SDS011;2752;49.992;8.422;2023-05-20T05:53:39;5.27;;;2.50;;
5458;SDS011;2752;49.992;8.422;2023-05-20T05:56:06;7.23;;;2.53;;
5458;SDS011;2752;49.992;8.422;2023-05-20T05:58:34;4.20;;;2.27;;
5458;SDS011;2752;49.992;8.422;2023-05-20T06:01:01;5.00;;;2.70;;
5458;SDS011;2752;49.992;8.422;2023-05-20T06:03:27;5.83;;;2.80;;
5458;SDS011;2752;49.992;8.422;2023-05-20T06:05:54;2.40;;;1.70;;
5458;SDS011;2752;49.992;8.422;2023-05-20T06:08:22;4.27;;;2.43;;
5458;SDS011;2752;49.992;8.422;2023-05-20T06:10:48;2.90;;;2.20;;
5458;SDS011;2752;49.992;8.422;2023-05-20T06:13:15;5.10;;;2.70;;
5458;SDS011;2752;49.992;8.422;2023-05-20T06:15:43;3.83;;;2.37;;
5458;SDS011;2752;49.992;8.422;2023-05-20T06:18:11;4.37;;;2.73;;
5458;SDS011;2752;49.992;8.422;2023-05-20T06:20:37;3.60;;;2.50;;
5458;SDS011;2752;49.992;8.422;2023-05-20T06:23:04;2.97;;;2.30;;
5458;SDS011;2752;49.992;8.422;2023-05-20T06:25:31;3.77;;;3.00;;
5458;SDS011;2752;49.992;8.422;2023-05-20T06:27:58;3.80;;;2.50;;
5458;SDS011;2752;49.992;8.422;2023-05-20T06:30:24;4.33;;;3.00;;
5458;SDS011;2752;49.992;8.422;2023-05-20T06:32:52;7.23;;;2.87;;
5458;SDS011;2752;49.992;8.422;2023-05-20T06:35:19;4.10;;;2.67;;
5458;SDS011;2752;49.992;8.422;2023-05-20T06:37:45;7.30;;;3.20;;
5458;SDS011;2752;49.992;8.422;2023-05-20T06:40:12;5.33;;;2.70;;
5458;SDS011;2752;49.992;8.422;2023-05-20T06:42:39;6.30;;;2.77;;
5458;SDS011;2752;49.992;8.422;2023-05-20T06:45:06;6.03;;;3.37;;
5458;SDS011;2752;49.992;8.422;2023-05-20T06:47:33;8.77;;;3.40;;
5458;SDS011;2752;49.992;8.422;2023-05-20T06:50:03;5.50;;;3.07;;
5458;SDS011;2752;49.992;8.422;2023-05-20T06:52:30;5.17;;;2.30;;
5458;SDS011;2752;49.992;8.422;2023-05-20T06:54:56;6.50;;;3.20;;
5458;SDS011;2752;49.992;8.422;2023-05-20T06:57:23;14.10;;;3.37;;
5458;SDS011;2752;49.992;8.422;2023-05-20T06:59:49;9.93;;;3.20;;
5458;SDS011;2752;49.992;8.422;2023-05-20T07:02:16;6.30;;;3.33;;
5458;SDS011;2752;49.992;8.422;2023-05-20T07:04:43;4.93;;;3.07;;
5458;SDS011;2752;49.992;8.422;2023-05-20T07:07:11;4.23;;;2.80;;
5458;SDS011;2752;49.992;8.422;2023-05-20T07:09:37;6.20;;;2.70;;
5458;SDS011;2752;49.992;8.422;2023-05-20T07:12:04;5.27;;;3.50;;
5458;SDS011;2752;49.992;8.422;2023-05-20T07:14:31;7.50;;;3.20;;
5458;SDS011;2752;49.992;8.422;2023-05-20T07:16:58;5.30;;;3.20;;
5458;SDS011;2752;49.992;8.422;2023-05-20T07:19:25;5.10;;;3.00;;
5458;SDS011;2752;49.992;8.422;2023-05-20T07:21:51;5.17;;;3.40;;
5458;SDS011;2752;49.992;8.422;2023-05-20T07:24:19;6.23;;;4.07;;
5458;SDS011;2752;49.992;8.422;2023-05-20T07:26:46;5.90;;;2.80;;
5458;SDS011;2752;49.992;8.422;2023-05-20T07:29:12;8.20;;;3.43;;
5458;SDS011;2752;49.992;8.422;2023-05-20T07:31:39;4.90;;;3.10;;
5458;SDS011;2752;49.992;8.422;2023-05-20T07:34:06;5.93;;;3.67;;
5458;SDS011;2752;49.992;8.422;2023-05-20T07:36:32;5.73;;;3.30;;
5458;SDS011;2752;49.992;8.422;2023-05-20T07:38:59;4.80;;;3.00;;
5458;SDS011;2752;49.992;8.422;2023-05-20T07:41:27;5.67;;;2.70;;
5458;SDS011;2752;49.992;8.422;2023-05-20T07:43:54;4.30;;;3.27;;
5458;SDS011;2752;49.992;8.422;2023-05-20T07:46:20;8.60;;;3.53;;
5458;SDS011;2752;49.992;8.422;2023-05-20T07:48:47;4.50;;;3.20;;
5458;SDS011;2752;49.992;8.422;2023-05-20T07:51:14;6.13;;;3.63;;
5458;SDS011;2752;49.992;8.422;2023-05-20T07:53:40;5.20;;;3.40;;
5458;SDS011;2752;49.992;8.422;2023-05-20T07:56:07;7.40;;;4.20;;
5458;SDS011;2752;49.992;8.422;2023-05-20T07:58:35;7.60;;;4.00;;
5458;SDS011;2752;49.992;8.422;2023-05-20T08:01:01;9.73;;;3.60;;
5458;SDS011;2752;49.992;8.422;2023-05-20T08:03:28;6.77;;;3.70;;
5458;SDS011;2752;49.992;8.422;2023-05-20T08:05:55;6.40;;;4.40;;
5458;SDS011;2752;49.992;8.422;2023-05-20T08:08:21;7.50;;;3.80;;
5458;SDS011;2752;49.992;8.422;2023-05-20T08:10:49;5.30;;;3.93;;
5458;SDS011;2752;49.992;8.422;2023-05-20T08:13:16;4.93;;;3.40;;
5458;SDS011;2752;49.992;8.422;2023-05-20T08:15:44;4.70;;;3.03;;
5458;SDS011;2752;49.992;8.422;2023-05-20T08:18:12;5.83;;;4.33;;
5458;SDS011;2752;49.992;8.422;2023-05-20T08:20:39;7.60;;;3.80;;
5458;SDS011;2752;49.992;8.422;2023-05-20T08:23:06;10.30;;;4.30;;
5458;SDS011;2752;49.992;8.422;2023-05-20T08:25:32;4.27;;;3.37;;
5458;SDS011;2752;49.992;8.422;2023-05-20T08:28:00;6.90;;;4.33;;
5458;SDS011;2752;49.992;8.422;2023-05-20T08:30:29;7.63;;;4.13;;
5458;SDS011;2752;49.992;8.422;2023-05-20T08:32:57;6.03;;;3.17;;
5458;SDS011;2752;49.992;8.422;2023-05-20T08:35:24;9.93;;;4.20;;
5458;SDS011;2752;49.992;8.422;2023-05-20T08:37:51;5.20;;;3.20;;
5458;SDS011;2752;49.992;8.422;2023-05-20T08:40:18;7.10;;;3.93;;
5458;SDS011;2752;49.992;8.422;2023-05-20T08:42:46;6.53;;;3.70;;
5458;SDS011;2752;49.992;8.422;2023-05-20T08:45:14;7.80;;;3.37;;
5458;SDS011;2752;49.992;8.422;2023-05-20T08:47:43;7.67;;;4.30;;
5458;SDS011;2752;49.992;8.422;2023-05-20T08:50:12;6.70;;;3.73;;
5458;SDS011;2752;49.992;8.422;2023-05-20T08:52:41;9.87;;;4.23;;
5458;SDS011;2752;49.992;8.422;2023-05-20T08:55:10;7.30;;;3.73;;
5458;SDS011;2752;49.992;8.422;2023-05-20T08:57:40;7.10;;;3.93;;
5458;SDS011;2752;49.992;8.422;2023-05-20T09:00:10;8.27;;;3.97;;
5458;SDS011;2752;49.992;8.422;2023-05-20T09:02:40;8.40;;;4.77;;
5458;SDS011;2752;49.992;8.422;2023-05-20T09:05:08;7.40;;;4.77;;
5458;SDS011;2752;49.992;8.422;2023-05-20T09:07:36;9.77;;;4.70;;
5458;SDS011;2752;49.992;8.422;2023-05-20T09:10:03;7.90;;;3.73;;
5458;SDS011;2752;49.992;8.422;2023-05-20T09:12:31;15.17;;;5.00;;
5458;SDS011;2752;49.992;8.422;2023-05-20T09:14:57;9.73;;;5.13;;
5458;SDS011;2752;49.992;8.422;2023-05-20T09:17:24;5.70;;;3.20;;
5458;SDS011;2752;49.992;8.422;2023-05-20T09:19:51;7.60;;;4.80;;
5458;SDS011;2752;49.992;8.422;2023-05-20T09:22:22;5.00;;;3.80;;
5458;SDS011;2752;49.992;8.422;2023-05-20T09:24:49;6.43;;;4.57;;
5458;SDS011;2752;49.992;8.422;2023-05-20T09:27:16;7.20;;;4.67;;
5458;SDS011;2752;49.992;8.422;2023-05-20T09:29:43;11.10;;;4.80;;
5458;SDS011;2752;49.992;8.422;2023-05-20T09:32:09;6.30;;;3.50;;
5458;SDS011;2752;49.992;8.422;2023-05-20T09:34:37;9.67;;;4.17;;
5458;SDS011;2752;49.992;8.422;2023-05-20T09:37:06;5.70;;;4.27;;
5458;SDS011;2752;49.992;8.422;2023-05-20T09:39:35;5.80;;;4.23;;
5458;SDS011;2752;49.992;8.422;2023-05-20T09:42:14;6.83;;;4.50;;
5458;SDS011;2752;49.992;8.422;2023-05-20T09:44:46;9.57;;;4.93;;
5458;SDS011;2752;49.992;8.422;2023-05-20T09:47:15;5.87;;;3.73;;
5458;SDS011;2752;49.992;8.422;2023-05-20T09:49:43;11.43;;;4.77;;
5458;SDS011;2752;49.992;8.422;2023-05-20T09:52:11;7.80;;;4.17;;
5458;SDS011;2752;49.992;8.422;2023-05-20T09:54:39;6.90;;;4.20;;
5458;SDS011;2752;49.992;8.422;2023-05-20T09:57:08;7.57;;;4.50;;
5458;SDS011;2752;49.992;8.422;2023-05-20T09:59:35;7.77;;;4.43;;
5458;SDS011;2752;49.992;8.422;2023-05-20T10:02:04;6.37;;;4.67;;
5458;SDS011;2752;49.992;8.422;2023-05-20T10:04:31;9.80;;;4.87;;
5458;SDS011;2752;49.992;8.422;2023-05-20T10:07:05;11.50;;;4.87;;
5458;SDS011;2752;49.992;8.422;2023-05-20T10:09:49;5.90;;;4.17;;
5458;SDS011;2752;49.992;8.422;2023-05-20T10:12:25;6.83;;;5.03;;
5458;SDS011;2752;49.992;8.422;2023-05-20T10:15:00;8.40;;;5.20;;
5458;SDS011;2752;49.992;8.422;2023-05-20T10:17:38;9.30;;;4.63;;
5458;SDS011;2752;49.992;8.422;2023-05-20T10:20:09;6.33;;;4.03;;
5458;SDS011;2752;49.992;8.422;2023-05-20T10:22:37;5.83;;;4.07;;
5458;SDS011;2752;49.992;8.422;2023-05-20T10:25:08;9.27;;;4.10;;
5458;SDS011;2752;49.992;8.422;2023-05-20T10:27:42;7.07;;;4.40;;
5458;SDS011;2752;49.992;8.422;2023-05-20T10:30:16;7.60;;;4.70;;
5458;SDS011;2752;49.992;8.422;2023-05-20T10:32:51;5.43;;;4.10;;
5458;SDS011;2752;49.992;8.422;2023-05-20T10:35:20;5.17;;;3.80;;
5458;SDS011;2752;49.992;8.422;2023-05-20T10:37:50;7.73;;;4.30;;
5458;SDS011;2752;49.992;8.422;2023-05-20T10:40:19;6.97;;;4.37;;
5458;SDS011;2752;49.992;8.422;2023-05-20T10:42:47;6.90;;;3.90;;
5458;SDS011;2752;49.992;8.422;2023-05-20T10:45:23;8.33;;;4.57;;
5458;SDS011;2752;49.992;8.422;2023-05-20T10:47:52;9.80;;;4.57;;
5458;SDS011;2752;49.992;8.422;2023-05-20T10:50:27;8.70;;;5.23;;
5458;SDS011;2752;49.992;8.422;2023-05-20T10:53:02;5.97;;;3.70;;
5458;SDS011;2752;49.992;8.422;2023-05-20T10:55:35;9.10;;;5.10;;
5458;SDS011;2752;49.992;8.422;2023-05-20T10:58:03;8.00;;;5.03;;
5458;SDS011;2752;49.992;8.422;2023-05-20T11:00:30;6.97;;;4.50;;
5458;SDS011;2752;49.992;8.422;2023-05-20T11:02:59;6.93;;;4.43;;
5458;SDS011;2752;49.992;8.422;2023-05-20T11:05:26;6.57;;;4.33;;
5458;SDS011;2752;49.992;8.422;2023-05-20T11:07:59;7.90;;;4.27;;
5458;SDS011;2752;49.992;8.422;2023-05-20T11:10:26;7.33;;;4.70;;
5458;SDS011;2752;49.992;8.422;2023-05-20T11:12:54;7.43;;;4.50;;
5458;SDS011;2752;49.992;8.422;2023-05-20T11:15:22;7.33;;;3.73;;
5458;SDS011;2752;49.992;8.422;2023-05-20T11:17:52;6.73;;;3.50;;
5458;SDS011;2752;49.992;8.422;2023-05-20T11:20:19;6.60;;;4.53;;
5458;SDS011;2752;49.992;8.422;2023-05-20T11:22:48;8.67;;;4.47;;
5458;SDS011;2752;49.992;8.422;2023-05-20T11:25:15;8.47;;;4.53;;
5458;SDS011;2752;49.992;8.422;2023-05-20T11:27:42;9.00;;;5.07;;
5458;SDS011;2752;49.992;8.422;2023-05-20T11:30:10;9.67;;;4.60;;
5458;SDS011;2752;49.992;8.422;2023-05-20T11:32:40;7.90;;;4.43;;
5458;SDS011;2752;49.992;8.422;2023-05-20T11:35:18;12.17;;;4.63;;
5458;SDS011;2752;49.992;8.422;2023-05-20T11:37:52;6.87;;;4.30;;
5458;SDS011;2752;49.992;8.422;2023-05-20T11:40:23;8.47;;;4.33;;
5458;SDS011;2752;49.992;8.422;2023-05-20T11:42:54;6.10;;;4.20;;
5458;SDS011;2752;49.992;8.422;2023-05-20T11:45:23;6.10;;;3.80;;
5458;SDS011;2752;49.992;8.422;2023-05-20T11:47:58;7.70;;;4.50;;
5458;SDS011;2752;49.992;8.422;2023-05-20T11:50:26;8.17;;;4.63;;
5458;SDS011;2752;49.992;8.422;2023-05-20T11:52:58;8.10;;;4.37;;
5458;SDS011;2752;49.992;8.422;2023-05-20T11:55:25;7.10;;;4.60;;
5458;SDS011;2752;49.992;8.422;2023-05-20T11:57:53;8.03;;;4.90;;
5458;SDS011;2752;49.992;8.422;2023-05-20T12:00:22;7.00;;;4.60;;
5458;SDS011;2752;49.992;8.422;2023-05-20T12:02:49;8.47;;;4.60;;
5458;SDS011;2752;49.992;8.422;2023-05-20T12:05:16;9.63;;;4.17;;
5458;SDS011;2752;49.992;8.422;2023-05-20T12:07:43;7.13;;;4.53;;
5458;SDS011;2752;49.992;8.422;2023-05-20T12:10:10;6.60;;;4.23;;
5458;SDS011;2752;49.992;8.422;2023-05-20T12:12:37;5.40;;;3.63;;
5458;SDS011;2752;49.992;8.422;2023-05-20T12:15:05;9.60;;;3.70;;
5458;SDS011;2752;49.992;8.422;2023-05-20T12:17:45;8.30;;;4.70;;
5458;SDS011;2752;49.992;8.422;2023-05-20T12:20:13;7.03;;;4.23;;
5458;SDS011;2752;49.992;8.422;2023-05-20T12:22:41;8.97;;;5.10;;
5458;SDS011;2752;49.992;8.422;2023-05-20T12:25:09;7.97;;;4.53;;
5458;SDS011;2752;49.992;8.422;2023-05-20T12:27:36;8.50;;;4.70;;
5458;SDS011;2752;49.992;8.422;2023-05-20T12:30:04;5.63;;;3.80;;
5458;SDS011;2752;49.992;8.422;2023-05-20T12:32:31;8.77;;;4.37;;
5458;SDS011;2752;49.992;8.422;2023-05-20T12:34:59;11.43;;;5.37;;
5458;SDS011;2752;49.992;8.422;2023-05-20T12:37:26;6.43;;;4.20;;
5458;SDS011;2752;49.992;8.422;2023-05-20T12:39:52;6.23;;;4.40;;
5458;SDS011;2752;49.992;8.422;2023-05-20T12:42:19;9.00;;;4.90;;
5458;SDS011;2752;49.992;8.422;2023-05-20T12:44:46;8.53;;;4.93;;
5458;SDS011;2752;49.992;8.422;2023-05-20T12:47:12;8.97;;;5.23;;
5458;SDS011;2752;49.992;8.422;2023-05-20T12:49:39;5.20;;;3.90;;
5458;SDS011;2752;49.992;8.422;2023-05-20T12:52:07;7.07;;;4.83;;
5458;SDS011;2752;49.992;8.422;2023-05-20T12:54:34;10.80;;;5.20;;
5458;SDS011;2752;49.992;8.422;2023-05-20T12:57:01;13.50;;;4.93;;
5458;SDS011;2752;49.992;8.422;2023-05-20T12:59:28;9.93;;;4.47;;
5458;SDS011;2752;49.992;8.422;2023-05-20T13:01:54;7.00;;;4.90;;
5458;SDS011;2752;49.992;8.422;2023-05-20T13:04:21;7.07;;;4.90;;
5458;SDS011;2752;49.992;8.422;2023-05-20T13:06:48;13.10;;;4.37;;
5458;SDS011;2752;49.992;8.422;2023-05-20T13:09:16;8.23;;;4.70;;
5458;SDS011;2752;49.992;8.422;2023-05-20T13:11:43;7.70;;;4.73;;
5458;SDS011;2752;49.992;8.422;2023-05-20T13:14:09;6.10;;;4.30;;
5458;SDS011;2752;49.992;8.422;2023-05-20T13:16:36;7.83;;;4.63;;
5458;SDS011;2752;49.992;8.422;2023-05-20T13:19:03;7.37;;;4.80;;
5458;SDS011;2752;49.992;8.422;2023-05-20T13:21:30;7.57;;;4.87;;
5458;SDS011;2752;49.992;8.422;2023-05-20T13:23:56;14.30;;;4.83;;
5458;SDS011;2752;49.992;8.422;2023-05-20T13:26:24;6.63;;;4.30;;
5458;SDS011;2752;49.992;8.422;2023-05-20T13:28:51;9.17;;;5.57;;
5458;SDS011;2752;49.992;8.422;2023-05-20T13:31:18;9.90;;;5.70;;
5458;SDS011;2752;49.992;8.422;2023-05-20T13:33:44;7.87;;;4.80;;
5458;SDS011;2752;49.992;8.422;2023-05-20T13:36:11;10.60;;;5.10;;
5458;SDS011;2752;49.992;8.422;2023-05-20T13:38:38;9.83;;;5.03;;
5458;SDS011;2752;49.992;8.422;2023-05-20T13:41:05;9.73;;;5.53;;
5458;SDS011;2752;49.992;8.422;2023-05-20T13:43:33;7.93;;;4.60;;
5458;SDS011;2752;49.992;8.422;2023-05-20T13:45:59;8.87;;;4.90;;
5458;SDS011;2752;49.992;8.422;2023-05-20T13:48:26;9.63;;;6.00;;
5458;SDS011;2752;49.992;8.422;2023-05-20T13:50:53;9.43;;;4.93;;
5458;SDS011;2752;49.992;8.422;2023-05-20T13:53:20;8.03;;;5.37;;
5458;SDS011;2752;49.992;8.422;2023-05-20T13:55:46;8.33;;;4.30;;
5458;SDS011;2752;49.992;8.422;2023-05-20T13:58:13;13.57;;;5.80;;
5458;SDS011;2752;49.992;8.422;2023-05-20T14:00:41;6.73;;;4.13;;
5458;SDS011;2752;49.992;8.422;2023-05-20T14:03:08;7.67;;;5.10;;
5458;SDS011;2752;49.992;8.422;2023-05-20T14:05:35;8.23;;;5.50;;
5458;SDS011;2752;49.992;8.422;2023-05-20T14:08:02;14.90;;;5.83;;
5458;SDS011;2752;49.992;8.422;2023-05-20T14:10:29;10.90;;;5.53;;
5458;SDS011;2752;49.992;8.422;2023-05-20T14:12:56;8.43;;;5.10;;
5458;SDS011;2752;49.992;8.422;2023-05-20T14:15:25;9.40;;;5.03;;
5458;SDS011;2752;49.992;8.422;2023-05-20T14:17:55;5.80;;;4.63;;
5458;SDS011;2752;49.992;8.422;2023-05-20T14:20:22;10.10;;;4.83;;
5458;SDS011;2752;49.992;8.422;2023-05-20T14:22:49;12.50;;;5.40;;
5458;SDS011;2752;49.992;8.422;2023-05-20T14:25:17;9.13;;;5.30;;
5458;SDS011;2752;49.992;8.422;2023-05-20T14:27:44;8.80;;;4.57;;
5458;SDS011;2752;49.992;8.422;2023-05-20T14:30:11;6.87;;;4.50;;
5458;SDS011;2752;49.992;8.422;2023-05-20T14:32:38;11.13;;;4.67;;
5458;SDS011;2752;49.992;8.422;2023-05-20T14:35:06;12.57;;;5.27;;
5458;SDS011;2752;49.992;8.422;2023-05-20T14:37:33;7.80;;;4.70;;
5458;SDS011;2752;49.992;8.422;2023-05-20T14:40:00;10.70;;;4.80;;
5458;SDS011;2752;49.992;8.422;2023-05-20T14:42:27;10.80;;;5.43;;
5458;SDS011;2752;49.992;8.422;2023-05-20T14:44:53;9.07;;;4.73;;
5458;SDS011;2752;49.992;8.422;2023-05-20T14:47:20;9.53;;;6.33;;
5458;SDS011;2752;49.992;8.422;2023-05-20T14:49:47;12.63;;;5.90;;
5458;SDS011;2752;49.992;8.422;2023-05-20T14:52:15;7.57;;;5.00;;
5458;SDS011;2752;49.992;8.422;2023-05-20T14:54:42;10.20;;;5.93;;
5458;SDS011;2752;49.992;8.422;2023-05-20T14:57:09;7.40;;;4.97;;
5458;SDS011;2752;49.992;8.422;2023-05-20T14:59:36;10.50;;;4.53;;
5458;SDS011;2752;49.992;8.422;2023-05-20T15:02:03;12.60;;;6.03;;
5458;SDS011;2752;49.992;8.422;2023-05-20T15:04:30;9.23;;;5.80;;
5458;SDS011;2752;49.992;8.422;2023-05-20T15:06:57;8.40;;;5.20;;
5458;SDS011;2752;49.992;8.422;2023-05-20T15:09:25;8.00;;;5.10;;
5458;SDS011;2752;49.992;8.422;2023-05-20T15:11:51;9.07;;;4.93;;
5458;SDS011;2752;49.992;8.422;2023-05-20T15:14:18;8.37;;;5.30;;
5458;SDS011;2752;49.992;8.422;2023-05-20T15:16:45;8.90;;;4.90;;
5458;SDS011;2752;49.992;8.422;2023-05-20T15:19:11;8.13;;;5.60;;